Time;durP1;ratioP1;P1;durP2;ratioP2;P2;SDS_P1;SDS_P2;PMS_P1;PMS_P2;Temp;Humidity;BMP_temperature;BMP_pressure;BME280_temperature;BME280_humidity;BME280_pressure;Samples;Min_cycle;Max_cycle;Signal;HPM_P1;HPM_P2
2024/01/09 00:01:01;;;;;;;74.40;33.55;;;;;;;;;;5110823;28;20204;-71
2024/01/09 00:03:26;;;;;;;94.28;39.85;;;;;;;;;;5110700;28;20078;-71
2024/01/09 00:05:51;;;;;;;100.65;43.70;;;;;;;;;;5092566;28;20032;-71
2024/01/09 00:08:17;;;;;;;85.78;39.83;;;;;;;;;;5110657;28;20020;-71
2024/01/09 00:10:42;;;;;;;82.03;39.35;;;;;;;;;;5110383;28;20465;-71
2024/01/09 00:13:08;;;;;;;91.32;42.10;;;;;;;;;;5110603;28;20419;-71
2024/01/09 00:15:33;;;;;;;85.45;38.70;;;;;;;;;;5099982;28;20416;-72
2024/01/09 00:17:59;;;;;;;52.72;25.60;;;;;;;;;;5096648;28;20028;-73
2024/01/09 00:20:25;;;;;;;50.50;25.20;;;;;;;;;;5096558;28;20081;-73
2024/01/09 00:22:53;;;;;;;51.75;25.67;;;;;;;;;;5096784;28;20119;-74
2024/01/09 00:25:19;;;;;;;55.55;26.77;;;;;;;;;;5061213;28;20063;-74
2024/01/09 00:27:45;;;;;;;51.10;24.15;;;;;;;;;;5078331;28;20466;-74
2024/01/09 00:30:10;;;;;;;48.95;23.88;;;;;;;;;;5096448;28;20466;-75
2024/01/09 00:32:39;;;;;;;96.03;34.97;;;;;;;;;;5061597;28;20035;-74
2024/01/09 00:35:04;;;;;;;109.43;39.67;;;;;;;;;;5078806;28;20065;-74
2024/01/09 00:37:30;;;;;;;76.93;33.03;;;;;;;;;;5096275;28;20028;-74
2024/01/09 00:39:55;;;;;;;74.50;34.25;;;;;;;;;;5106614;22;20079;-72
2024/01/09 00:42:21;;;;;;;73.15;36.53;;;;;;;;;;5093918;28;20028;-72
2024/01/09 00:44:47;;;;;;;271.23;117.78;;;;;;;;;;5093974;28;20477;-72
2024/01/09 00:47:12;;;;;;;115.15;51.28;;;;;;;;;;5075874;28;20024;-74
2024/01/09 00:49:38;;;;;;;94.25;41.05;;;;;;;;;;5094205;28;20472;-72
2024/01/09 00:52:05;;;;;;;79.40;34.50;;;;;;;;;;5094036;28;20028;-72
2024/01/09 00:54:31;;;;;;;91.18;36.83;;;;;;;;;;5094137;28;20466;-71
2024/01/09 00:56:56;;;;;;;91.25;38.22;;;;;;;;;;5076598;28;20032;-63
2024/01/09 00:59:22;;;;;;;100.93;40.28;;;;;;;;;;5095789;28;20028;-65
2024/01/09 01:01:50;;;;;;;98.47;42.25;;;;;;;;;;5077643;28;20067;-65
2024/01/09 01:04:16;;;;;;;100.80;46.80;;;;;;;;;;5095948;28;20028;-64
2024/01/09 01:06:42;;;;;;;65.47;32.90;;;;;;;;;;5096254;28;20035;-65
2024/01/09 01:09:08;;;;;;;61.28;28.85;;;;;;;;;;5077632;28;20034;-64
2024/01/09 01:11:33;;;;;;;76.07;33.67;;;;;;;;;;5077850;28;20019;-64
2024/01/09 01:13:58;;;;;;;74.20;33.72;;;;;;;;;;5095568;28;20038;-64
2024/01/09 01:16:24;;;;;;;78.93;34.33;;;;;;;;;;5096046;28;20521;-63
2024/01/09 01:18:49;;;;;;;64.43;28.30;;;;;;;;;;5095752;28;20040;-65
2024/01/09 01:21:15;;;;;;;73.95;29.77;;;;;;;;;;5095387;28;20023;-63
2024/01/09 01:23:42;;;;;;;71.75;30.60;;;;;;;;;;5095854;28;20032;-71
2024/01/09 01:26:07;;;;;;;82.72;30.95;;;;;;;;;;5094710;28;20074;-71
2024/01/09 01:28:40;;;;;;;55.45;26.77;;;;;;;;;;5095428;28;20057;-71
2024/01/09 01:31:05;;;;;;;57.97;29.27;;;;;;;;;;5077561;28;20052;-71
2024/01/09 01:33:31;;;;;;;61.08;30.13;;;;;;;;;;5095599;28;20051;-70
2024/01/09 01:39:32;;;;;;;77.07;33.97;;;;;;;;;;5094514;22;20063;-71
2024/01/09 01:41:58;;;;;;;72.28;32.10;;;;;;;;;;5095312;28;20031;-71
2024/01/09 01:44:24;;;;;;;73.55;32.92;;;;;;;;;;5094932;28;20393;-72
2024/01/09 01:46:50;;;;;;;58.08;29.40;;;;;;;;;;5095239;28;20039;-72
2024/01/09 01:49:16;;;;;;;64.70;30.98;;;;;;;;;;5060131;28;20024;-71
2024/01/09 01:51:42;;;;;;;58.90;28.45;;;;;;;;;;5076712;28;20057;-72
2024/01/09 01:54:08;;;;;;;63.45;29.95;;;;;;;;;;5094800;28;20035;-72
2024/01/09 01:56:34;;;;;;;65.38;31.15;;;;;;;;;;5095283;28;20036;-72
2024/01/09 01:59:00;;;;;;;62.17;29.73;;;;;;;;;;5094974;28;20064;-75
2024/01/09 02:01:26;;;;;;;64.75;30.75;;;;;;;;;;5059789;28;20115;-75
2024/01/09 02:03:51;;;;;;;64.05;31.85;;;;;;;;;;5095104;28;20440;-75
2024/01/09 02:06:18;;;;;;;60.83;30.80;;;;;;;;;;5076782;28;20032;-75
2024/01/09 02:08:43;;;;;;;63.80;31.98;;;;;;;;;;5094519;28;20020;-76
2024/01/09 02:11:08;;;;;;;82.00;35.78;;;;;;;;;;5094758;28;20028;-76
2024/01/09 02:13:34;;;;;;;73.80;35.08;;;;;;;;;;5094681;28;20043;-76
2024/01/09 02:15:59;;;;;;;66.35;33.17;;;;;;;;;;5094722;28;20024;-75
2024/01/09 02:18:25;;;;;;;59.70;30.20;;;;;;;;;;5076508;28;20036;-75
2024/01/09 02:20:50;;;;;;;56.17;30.08;;;;;;;;;;5094291;28;20112;-76
2024/01/09 02:23:15;;;;;;;64.20;33.30;;;;;;;;;;5094189;28;20085;-75
2024/01/09 02:25:40;;;;;;;54.90;28.92;;;;;;;;;;5094249;28;20023;-75
2024/01/09 02:28:10;;;;;;;62.17;31.75;;;;;;;;;;5076061;28;20385;-74
2024/01/09 02:30:36;;;;;;;62.65;31.45;;;;;;;;;;5094361;28;20016;-73
2024/01/09 02:33:02;;;;;;;58.78;30.67;;;;;;;;;;5094417;28;20020;-73
2024/01/09 02:35:27;;;;;;;55.05;28.35;;;;;;;;;;5094375;28;20078;-73
2024/01/09 02:37:53;;;;;;;60.03;28.15;;;;;;;;;;5093802;28;20367;-74
2024/01/09 02:40:18;;;;;;;54.80;27.58;;;;;;;;;;5093941;28;20440;-73
2024/01/09 02:42:43;;;;;;;59.35;28.23;;;;;;;;;;5094142;28;20039;-72
2024/01/09 02:45:10;;;;;;;60.85;29.08;;;;;;;;;;5075867;28;20389;-73
2024/01/09 02:47:35;;;;;;;60.33;29.35;;;;;;;;;;5075848;28;20114;-64
2024/01/09 02:50:27;;;;;;;59.00;30.15;;;;;;;;;;5116196;22;20149;31
2024/01/09 02:52:59;;;;;;;60.05;30.42;;;;;;;;;;5082359;22;20044;-71
2024/01/09 02:55:25;;;;;;;61.10;30.35;;;;;;;;;;5052285;28;20049;-71
2024/01/09 02:57:50;;;;;;;62.00;31.00;;;;;;;;;;5035849;28;20048;-71
2024/01/09 03:00:15;;;;;;;55.10;30.05;;;;;;;;;;5054107;28;20031;-71
2024/01/09 03:02:43;;;;;;;55.70;28.05;;;;;;;;;;5053724;28;20459;-71
2024/01/09 03:05:08;;;;;;;52.40;26.95;;;;;;;;;;5054037;28;20013;-64
2024/01/09 03:07:34;;;;;;;56.20;27.88;;;;;;;;;;5036045;28;20021;-65
2024/01/09 03:10:02;;;;;;;58.33;28.55;;;;;;;;;;5053865;28;20463;-65
2024/01/09 03:12:27;;;;;;;61.20;29.27;;;;;;;;;;5054550;28;20135;-65
2024/01/09 03:14:52;;;;;;;65.47;29.27;;;;;;;;;;5054035;28;20459;-65
2024/01/09 03:17:18;;;;;;;60.85;28.23;;;;;;;;;;5053745;28;20471;-66
2024/01/09 03:19:43;;;;;;;56.97;28.27;;;;;;;;;;5053990;28;20029;-66
2024/01/09 03:22:09;;;;;;;55.03;27.48;;;;;;;;;;5053350;28;20476;-65
2024/01/09 03:24:34;;;;;;;60.25;28.20;;;;;;;;;;5052015;28;20423;-65
2024/01/09 03:27:00;;;;;;;68.63;29.90;;;;;;;;;;5053839;28;20417;-65
2024/01/09 03:29:26;;;;;;;65.30;28.60;;;;;;;;;;5035602;28;20027;-66
2024/01/09 03:31:54;;;;;;;66.55;30.80;;;;;;;;;;5053260;28;20025;-65
2024/01/09 03:34:20;;;;;;;80.78;34.95;;;;;;;;;;5036188;28;20378;-65
2024/01/09 03:36:46;;;;;;;66.22;29.88;;;;;;;;;;5053178;28;20025;-65
2024/01/09 03:39:16;;;;;;;58.15;29.13;;;;;;;;;;5053446;28;20040;-64
2024/01/09 03:41:45;;;;;;;60.63;28.63;;;;;;;;;;5053740;28;20033;-65
2024/01/09 03:44:12;;;;;;;55.10;27.85;;;;;;;;;;5053304;28;20037;-64
2024/01/09 03:49:07;;;;;;;58.08;27.42;;;;;;;;;;5051693;28;20116;-65
2024/01/09 03:51:33;;;;;;;68.15;29.75;;;;;;;;;;5057033;28;20033;-64
2024/01/09 03:53:58;;;;;;;66.03;32.20;;;;;;;;;;5057133;28;20031;-64
2024/01/09 03:56:24;;;;;;;143.13;56.78;;;;;;;;;;5038861;28;20487;-67
2024/01/09 03:58:51;;;;;;;320.38;111.32;;;;;;;;;;5083100;22;20748;-67
2024/01/09 04:01:17;;;;;;;461.70;145.00;;;;;;;;;;5076985;28;20029;-70
2024/01/09 04:03:42;;;;;;;198.57;67.55;;;;;;;;;;5077121;28;20029;-70
2024/01/09 04:06:07;;;;;;;93.18;41.42;;;;;;;;;;5076900;28;20032;-69
2024/01/09 04:08:33;;;;;;;109.75;45.53;;;;;;;;;;5077150;28;20035;-70
2024/01/09 04:10:58;;;;;;;88.65;41.03;;;;;;;;;;5059663;28;20020;-70
2024/01/09 04:13:23;;;;;;;90.38;41.53;;;;;;;;;;5076483;28;20029;-70
2024/01/09 04:15:49;;;;;;;77.25;37.13;;;;;;;;;;5076976;28;20036;-71
2024/01/09 04:18:14;;;;;;;66.20;33.88;;;;;;;;;;5076226;28;20042;-71
2024/01/09 04:20:40;;;;;;;60.35;27.52;;;;;;;;;;5076523;28;20024;-71
2024/01/09 04:23:05;;;;;;;136.68;54.70;;;;;;;;;;5075995;28;20039;-72
2024/01/09 04:25:31;;;;;;;111.03;45.85;;;;;;;;;;5074116;28;20032;-71
2024/01/09 04:27:56;;;;;;;109.13;47.28;;;;;;;;;;5074142;28;20063;-71
2024/01/09 04:30:21;;;;;;;104.97;46.33;;;;;;;;;;5074024;28;20090;-70
2024/01/09 04:32:47;;;;;;;109.43;47.08;;;;;;;;;;5058229;28;20040;-72
2024/01/09 04:35:12;;;;;;;136.73;55.25;;;;;;;;;;5076668;28;20024;-72
2024/01/09 04:37:38;;;;;;;141.98;55.88;;;;;;;;;;5058298;28;20063;-72
2024/01/09 04:40:03;;;;;;;185.57;69.20;;;;;;;;;;5058772;28;20032;-73
2024/01/09 04:42:29;;;;;;;111.50;51.08;;;;;;;;;;5076028;28;20060;-73
2024/01/09 04:44:54;;;;;;;104.93;47.60;;;;;;;;;;5076405;28;20028;-72
2024/01/09 04:47:20;;;;;;;103.28;45.60;;;;;;;;;;5076501;28;20036;-73
2024/01/09 04:49:45;;;;;;;105.85;46.15;;;;;;;;;;5075613;28;20017;-64
2024/01/09 04:52:11;;;;;;;89.63;37.75;;;;;;;;;;5057872;28;20051;-65
2024/01/09 04:54:36;;;;;;;112.22;52.92;;;;;;;;;;5076659;28;20032;-64
2024/01/09 04:57:02;;;;;;;99.63;47.05;;;;;;;;;;5058257;28;20039;-64
2024/01/09 04:59:27;;;;;;;98.68;46.42;;;;;;;;;;5075811;28;20059;-64
2024/01/09 05:01:53;;;;;;;113.97;54.60;;;;;;;;;;5075728;28;20111;-65
2024/01/09 05:04:18;;;;;;;107.93;52.92;;;;;;;;;;5056912;28;20033;-75
2024/01/09 05:06:45;;;;;;;93.78;46.90;;;;;;;;;;5056946;28;20037;-73
2024/01/09 05:09:11;;;;;;;104.35;50.10;;;;;;;;;;5056387;28;20358;-75
2024/01/09 05:11:37;;;;;;;105.40;47.80;;;;;;;;;;5074949;28;20021;-74
2024/01/09 05:14:03;;;;;;;121.63;52.88;;;;;;;;;;5073772;28;20385;-70
2024/01/09 05:16:28;;;;;;;126.45;55.22;;;;;;;;;;5073736;28;20029;-70
2024/01/09 05:18:54;;;;;;;123.60;55.10;;;;;;;;;;5074033;28;20064;-71
2024/01/09 05:21:20;;;;;;;100.70;46.97;;;;;;;;;;5075083;28;20373;-72
2024/01/09 05:23:45;;;;;;;131.98;59.70;;;;;;;;;;5075049;28;20024;-72
2024/01/09 05:26:11;;;;;;;170.75;71.95;;;;;;;;;;5075066;28;20059;-72
2024/01/09 05:28:36;;;;;;;122.25;55.25;;;;;;;;;;5057225;28;20519;-72
2024/01/09 05:31:02;;;;;;;115.82;51.85;;;;;;;;;;5075714;28;20021;-71
2024/01/09 05:33:27;;;;;;;111.65;49.55;;;;;;;;;;5075713;28;20027;-70
2024/01/09 05:35:53;;;;;;;103.53;45.60;;;;;;;;;;5075201;28;20028;-70
2024/01/09 05:38:19;;;;;;;103.35;47.80;;;;;;;;;;5075223;28;20083;-71
2024/01/09 05:40:44;;;;;;;102.93;50.53;;;;;;;;;;5075460;28;20037;-69
2024/01/09 05:43:09;;;;;;;86.00;43.08;;;;;;;;;;5075162;28;20032;-69
2024/01/09 05:45:35;;;;;;;86.72;43.60;;;;;;;;;;5075437;28;20032;-68
2024/01/09 05:48:00;;;;;;;102.80;50.33;;;;;;;;;;5074659;28;20056;-61
2024/01/09 05:50:25;;;;;;;129.23;62.35;;;;;;;;;;5057400;28;20032;-62
2024/01/09 05:52:51;;;;;;;112.28;52.88;;;;;;;;;;5057049;28;20044;-61
2024/01/09 05:55:16;;;;;;;113.38;54.92;;;;;;;;;;5074741;28;20036;-61
2024/01/09 05:57:42;;;;;;;110.57;56.70;;;;;;;;;;5074753;28;20028;-60
2024/01/09 06:00:08;;;;;;;96.65;48.95;;;;;;;;;;5074487;28;20040;-60
2024/01/09 06:02:34;;;;;;;113.32;54.80;;;;;;;;;;5074605;28;20036;-61
2024/01/09 06:04:59;;;;;;;112.72;54.90;;;;;;;;;;5074877;28;20388;-61
2024/01/09 06:07:24;;;;;;;121.18;56.78;;;;;;;;;;5074288;28;20024;-61
2024/01/09 06:09:50;;;;;;;126.57;59.03;;;;;;;;;;5056449;28;20033;-61
2024/01/09 06:12:15;;;;;;;139.98;64.32;;;;;;;;;;5074000;28;20029;-61
2024/01/09 06:14:45;;;;;;;163.93;75.45;;;;;;;;;;5074420;28;20033;-61
2024/01/09 06:17:10;;;;;;;157.98;71.72;;;;;;;;;;5074402;28;20025;-61
2024/01/09 06:19:35;;;;;;;153.23;69.60;;;;;;;;;;5074078;28;20037;-61
2024/01/09 06:22:04;;;;;;;151.23;69.45;;;;;;;;;;5088483;22;20072;-61
2024/01/09 06:25:06;;;;;;;154.38;70.13;;;;;;;;;;5071620;28;20409;-60
2024/01/09 06:27:32;;;;;;;148.15;67.45;;;;;;;;;;5073080;28;20024;-60
2024/01/09 06:29:57;;;;;;;147.98;67.90;;;;;;;;;;5053875;28;20043;-68
2024/01/09 06:32:22;;;;;;;140.52;65.22;;;;;;;;;;5054556;28;20079;-68
2024/01/09 06:34:48;;;;;;;137.55;62.05;;;;;;;;;;5072724;28;20039;-69
2024/01/09 06:37:13;;;;;;;134.35;62.55;;;;;;;;;;5072450;28;20052;-68
2024/01/09 06:39:38;;;;;;;135.70;62.92;;;;;;;;;;5072074;28;20332;-69
2024/01/09 06:42:04;;;;;;;141.68;63.13;;;;;;;;;;5071880;28;20036;-69
2024/01/09 06:44:29;;;;;;;145.93;65.15;;;;;;;;;;5037362;28;20031;-61
2024/01/09 06:46:55;;;;;;;142.45;64.35;;;;;;;;;;5053987;28;20394;-61
2024/01/09 06:49:20;;;;;;;154.50;68.95;;;;;;;;;;5053886;28;20077;-61
2024/01/09 06:51:45;;;;;;;156.45;68.82;;;;;;;;;;5071759;28;20034;-61
2024/01/09 06:54:11;;;;;;;155.57;68.90;;;;;;;;;;5071977;28;20088;-61
2024/01/09 06:56:36;;;;;;;146.88;67.40;;;;;;;;;;5072386;28;20038;-61
2024/01/09 06:59:02;;;;;;;156.23;69.20;;;;;;;;;;5073402;28;20451;-61
2024/01/09 07:01:27;;;;;;;154.55;67.13;;;;;;;;;;5055644;28;20575;-61
2024/01/09 07:03:53;;;;;;;139.57;62.30;;;;;;;;;;5055550;28;20482;-61
2024/01/09 07:06:18;;;;;;;131.25;59.88;;;;;;;;;;5073559;28;20385;-61
2024/01/09 07:08:43;;;;;;;138.95;61.20;;;;;;;;;;5055586;28;20104;-61
2024/01/09 07:11:09;;;;;;;127.93;57.63;;;;;;;;;;5073520;28;20024;-61
2024/01/09 07:13:34;;;;;;;130.93;61.38;;;;;;;;;;5073457;28;20354;-60
2024/01/09 07:16:00;;;;;;;153.68;73.75;;;;;;;;;;5073478;28;20496;-59
2024/01/09 07:18:27;;;;;;;131.43;63.72;;;;;;;;;;5073979;28;20044;-61
2024/01/09 07:20:53;;;;;;;91.20;44.35;;;;;;;;;;5055441;28;20119;-61
2024/01/09 07:23:18;;;;;;;64.95;33.47;;;;;;;;;;5073181;28;20450;-61
2024/01/09 07:25:43;;;;;;;57.90;28.90;;;;;;;;;;5076225;28;20104;-61
2024/01/09 07:28:09;;;;;;;58.00;29.25;;;;;;;;;;5059535;28;20496;-61
2024/01/09 07:30:34;;;;;;;53.55;28.10;;;;;;;;;;5077641;28;20369;-61
2024/01/09 07:33:00;;;;;;;54.67;26.92;;;;;;;;;;5077593;28;20029;-61
2024/01/09 07:35:26;;;;;;;50.30;27.02;;;;;;;;;;5088445;22;20071;-61
2024/01/09 07:37:52;;;;;;;48.95;26.52;;;;;;;;;;5081131;22;20481;-61
2024/01/09 07:40:18;;;;;;;52.83;26.45;;;;;;;;;;5087585;22;20061;-68
2024/01/09 07:42:43;;;;;;;50.30;24.23;;;;;;;;;;5091114;22;20068;-60
2024/01/09 07:45:11;;;;;;;56.33;26.95;;;;;;;;;;5059120;28;20033;-61
2024/01/09 07:47:37;;;;;;;51.47;27.92;;;;;;;;;;5059896;28;20362;-69
2024/01/09 07:50:03;;;;;;;300.38;109.93;;;;;;;;;;5076924;28;20079;-69
2024/01/09 07:52:28;;;;;;;303.83;131.63;;;;;;;;;;5077223;28;20037;-68
2024/01/09 07:54:54;;;;;;;207.95;83.03;;;;;;;;;;5077411;28;20031;-68
2024/01/09 07:57:22;;;;;;;255.60;108.70;;;;;;;;;;5076793;28;20017;-68
2024/01/09 07:59:47;;;;;;;254.80;114.95;;;;;;;;;;5077353;28;20116;-69
2024/01/09 08:02:12;;;;;;;202.63;95.07;;;;;;;;;;5076709;28;20052;-69
2024/01/09 08:04:39;;;;;;;79.82;53.10;;;;;;;;;;5076611;28;20134;-69
2024/01/09 08:07:04;;;;;;;146.82;86.22;;;;;;;;;;5042027;28;20115;-69
2024/01/09 08:09:30;;;;;;;80.15;46.88;;;;;;;;;;5076605;28;20431;-69
2024/01/09 08:11:55;;;;;;;41.15;24.23;;;;;;;;;;5076557;28;20103;-69
2024/01/09 08:14:20;;;;;;;103.53;48.20;;;;;;;;;;5076513;28;20390;-69
2024/01/09 08:16:46;;;;;;;79.30;37.35;;;;;;;;;;5076429;28;20035;-69
2024/01/09 08:19:11;;;;;;;50.33;27.23;;;;;;;;;;5076664;28;20105;-69
2024/01/09 08:21:36;;;;;;;57.88;28.95;;;;;;;;;;5059084;28;20021;-69
2024/01/09 08:24:02;;;;;;;75.45;36.90;;;;;;;;;;5058272;28;20033;-69
2024/01/09 08:26:28;;;;;;;68.57;36.15;;;;;;;;;;5076574;28;20028;-69
2024/01/09 08:28:53;;;;;;;76.40;41.08;;;;;;;;;;5058301;28;20107;-70
2024/01/09 08:31:19;;;;;;;49.33;26.90;;;;;;;;;;5076238;28;20029;-69
2024/01/09 08:33:44;;;;;;;141.38;81.57;;;;;;;;;;5090187;22;20055;-61
2024/01/09 08:36:09;;;;;;;48.45;28.90;;;;;;;;;;5066854;22;20057;-70
2024/01/09 08:38:35;;;;;;;61.20;29.70;;;;;;;;;;5056048;28;20506;-69
2024/01/09 08:41:02;;;;;;;52.35;26.27;;;;;;;;;;5056588;28;20031;-69
2024/01/09 08:43:29;;;;;;;130.15;68.80;;;;;;;;;;5038144;28;20037;-69
2024/01/09 08:46:08;;;;;;;47.00;26.98;;;;;;;;;;5107010;22;20045;-69
2024/01/09 08:48:34;;;;;;;56.67;28.45;;;;;;;;;;5076046;22;20056;-69
2024/01/09 08:50:59;;;;;;;55.88;29.58;;;;;;;;;;5075866;28;20024;-69
2024/01/09 08:53:28;;;;;;;41.40;23.27;;;;;;;;;;5058130;28;20470;-68
2024/01/09 08:55:53;;;;;;;49.63;27.55;;;;;;;;;;5058371;28;20474;-68
2024/01/09 08:58:18;;;;;;;44.10;24.98;;;;;;;;;;5057758;28;20067;-69
2024/01/09 09:00:44;;;;;;;41.45;23.02;;;;;;;;;;5076239;28;20067;-69
2024/01/09 09:03:10;;;;;;;45.80;28.15;;;;;;;;;;5075578;28;20461;-68
2024/01/09 09:05:35;;;;;;;47.40;25.75;;;;;;;;;;5075607;28;20071;-69
2024/01/09 09:08:00;;;;;;;72.13;39.53;;;;;;;;;;5075565;28;20047;-69
2024/01/09 09:10:26;;;;;;;58.95;31.02;;;;;;;;;;5075438;28;20020;-69
2024/01/09 09:12:51;;;;;;;48.95;25.08;;;;;;;;;;5075719;28;20024;-69
2024/01/09 09:15:16;;;;;;;46.28;23.90;;;;;;;;;;5075685;28;20028;-69
2024/01/09 09:17:42;;;;;;;41.45;22.38;;;;;;;;;;5075651;28;20406;-68
2024/01/09 09:20:07;;;;;;;45.95;25.13;;;;;;;;;;5075293;28;20078;-68
2024/01/09 09:22:33;;;;;;;39.15;21.40;;;;;;;;;;5075528;28;20035;-70
2024/01/09 09:24:59;;;;;;;48.38;25.67;;;;;;;;;;5075125;28;20029;-68
2024/01/09 09:27:24;;;;;;;36.58;19.80;;;;;;;;;;5075086;28;20137;-69
2024/01/09 09:29:52;;;;;;;33.58;18.58;;;;;;;;;;5075115;28;20024;-69
2024/01/09 09:32:18;;;;;;;67.38;30.90;;;;;;;;;;5057104;28;20409;-69
2024/01/09 09:34:43;;;;;;;37.92;20.77;;;;;;;;;;5057145;28;20032;-69
2024/01/09 09:37:08;;;;;;;38.13;20.08;;;;;;;;;;5075215;28;20039;-70
2024/01/09 09:39:34;;;;;;;40.80;20.70;;;;;;;;;;5075157;28;20043;-69
2024/01/09 09:41:59;;;;;;;38.13;19.75;;;;;;;;;;5074862;28;20577;-69
2024/01/09 09:44:25;;;;;;;31.52;17.23;;;;;;;;;;5074983;28;20032;-69
2024/01/09 09:46:51;;;;;;;34.00;18.13;;;;;;;;;;5074354;28;20047;-69
2024/01/09 09:49:17;;;;;;;34.75;18.00;;;;;;;;;;5074153;28;20067;-68
2024/01/09 09:51:43;;;;;;;27.83;16.60;;;;;;;;;;5074634;28;20020;-69
2024/01/09 09:54:10;;;;;;;30.73;15.80;;;;;;;;;;5074578;28;20111;-61
2024/01/09 09:56:36;;;;;;;29.05;15.85;;;;;;;;;;5074861;28;20066;-61
2024/01/09 09:59:01;;;;;;;31.30;19.02;;;;;;;;;;5056709;28;20021;-61
2024/01/09 10:01:28;;;;;;;30.52;17.83;;;;;;;;;;5074499;28;20029;-61
2024/01/09 10:03:59;;;;;;;25.80;14.82;;;;;;;;;;5074323;28;20033;-61
2024/01/09 10:06:24;;;;;;;27.83;15.80;;;;;;;;;;5074647;28;20058;-61
2024/01/09 10:08:50;;;;;;;29.35;17.25;;;;;;;;;;5056443;28;20016;-61
2024/01/09 10:11:15;;;;;;;34.83;19.00;;;;;;;;;;5074558;28;20068;-61
2024/01/09 10:13:41;;;;;;;31.05;18.27;;;;;;;;;;5074213;28;20056;-61
2024/01/09 10:16:06;;;;;;;30.75;16.20;;;;;;;;;;5074741;28;20024;-61
2024/01/09 10:18:32;;;;;;;26.88;15.43;;;;;;;;;;5056630;28;20028;-61
2024/01/09 10:20:58;;;;;;;25.90;14.02;;;;;;;;;;5074101;28;20036;-62
2024/01/09 10:23:24;;;;;;;23.80;13.95;;;;;;;;;;5074011;28;20052;-61
2024/01/09 10:25:50;;;;;;;32.13;16.83;;;;;;;;;;5074309;28;20021;-61
2024/01/09 10:28:18;;;;;;;74.82;32.90;;;;;;;;;;5074243;28;20015;-61
2024/01/09 10:30:44;;;;;;;83.05;32.85;;;;;;;;;;5074237;28;20100;-61
2024/01/09 10:33:10;;;;;;;28.73;15.90;;;;;;;;;;5073938;28;20083;-61
2024/01/09 10:35:37;;;;;;;34.72;18.55;;;;;;;;;;5055984;28;20037;-61
2024/01/09 10:38:02;;;;;;;25.40;14.40;;;;;;;;;;5074429;28;20068;-60
2024/01/09 10:43:40;;;;;;;30.95;16.05;;;;;;;;;;5073731;28;20508;-61
2024/01/09 10:46:06;;;;;;;40.28;20.52;;;;;;;;;;5073775;28;20016;-61
2024/01/09 10:48:32;;;;;;;35.72;16.60;;;;;;;;;;5073619;28;20094;-61
2024/01/09 10:50:58;;;;;;;35.80;18.80;;;;;;;;;;5073762;28;20028;-61
2024/01/09 10:53:24;;;;;;;36.10;18.88;;;;;;;;;;5039127;28;20408;-61
2024/01/09 10:55:50;;;;;;;32.17;15.98;;;;;;;;;;5046946;22;20558;-62
2024/01/09 10:58:17;;;;;;;42.83;19.45;;;;;;;;;;5102294;22;20135;-61
2024/01/09 11:00:42;;;;;;;27.58;14.23;;;;;;;;;;5073923;28;20017;-60
2024/01/09 11:03:08;;;;;;;26.02;14.55;;;;;;;;;;5073783;28;20484;-61
2024/01/09 11:08:37;;;;;;;32.83;16.85;;;;;;;;;;5113270;22;20135;-64
2024/01/09 11:11:05;;;;;;;36.78;18.40;;;;;;;;;;5052159;28;20114;-61
2024/01/09 11:13:33;;;;;;;18.70;10.95;;;;;;;;;;5054249;28;20374;-61
2024/01/09 11:15:59;;;;;;;17.75;10.38;;;;;;;;;;5053390;28;20463;-61
2024/01/09 11:18:27;;;;;;;18.60;10.63;;;;;;;;;;5053414;28;20467;-61
2024/01/09 11:21:02;;;;;;;22.15;11.52;;;;;;;;;;5053658;28;20024;-61
2024/01/09 11:23:42;;;;;;;17.30;10.40;;;;;;;;;;5053868;28;20128;-61
2024/01/09 11:26:08;;;;;;;16.83;9.65;;;;;;;;;;5035513;28;20040;-61
2024/01/09 11:28:37;;;;;;;14.20;8.45;;;;;;;;;;5053520;28;20025;-61
2024/01/09 11:31:06;;;;;;;18.48;10.27;;;;;;;;;;5053542;28;20032;-61
2024/01/09 11:33:32;;;;;;;16.77;9.73;;;;;;;;;;5035434;28;20041;-61
2024/01/09 11:36:03;;;;;;;12.43;7.75;;;;;;;;;;5035775;28;20455;-61
2024/01/09 11:38:28;;;;;;;16.63;9.73;;;;;;;;;;5053233;28;20102;-61
2024/01/09 11:40:54;;;;;;;14.88;8.00;;;;;;;;;;5035355;28;20064;-61
2024/01/09 11:43:19;;;;;;;21.50;11.77;;;;;;;;;;5035593;28;20445;-60
2024/01/09 11:45:44;;;;;;;13.63;8.63;;;;;;;;;;5053714;28;20021;-61
2024/01/09 11:48:10;;;;;;;13.07;7.22;;;;;;;;;;5053442;28;20059;-60
2024/01/09 11:50:36;;;;;;;16.25;8.63;;;;;;;;;;5053058;28;20482;-60
2024/01/09 11:53:01;;;;;;;14.25;7.65;;;;;;;;;;5051862;28;20063;-60
2024/01/09 11:55:27;;;;;;;16.85;9.88;;;;;;;;;;5053323;28;20036;-61
2024/01/09 11:57:52;;;;;;;15.25;8.85;;;;;;;;;;5053049;28;20390;-60
2024/01/09 12:00:19;;;;;;;16.20;9.52;;;;;;;;;;5053004;28;20025;-60
2024/01/09 12:02:44;;;;;;;13.73;7.95;;;;;;;;;;5053264;28;20048;-61
2024/01/09 12:05:09;;;;;;;12.55;7.60;;;;;;;;;;5052959;28;20095;-60
2024/01/09 12:07:35;;;;;;;27.25;18.08;;;;;;;;;;5051765;28;20021;-61
2024/01/09 12:10:02;;;;;;;14.82;8.75;;;;;;;;;;5052796;28;20045;-60
2024/01/09 12:12:27;;;;;;;13.50;7.63;;;;;;;;;;5056334;28;20399;-61
2024/01/09 12:14:53;;;;;;;19.58;12.93;;;;;;;;;;5056563;28;20040;-69
2024/01/09 12:17:20;;;;;;;13.70;8.50;;;;;;;;;;5056461;28;20025;-69
2024/01/09 12:19:45;;;;;;;16.92;11.80;;;;;;;;;;5055672;28;20033;-61
2024/01/09 12:22:10;;;;;;;20.63;11.75;;;;;;;;;;5056639;28;20040;-61
2024/01/09 12:25:00;;;;;;;21.50;11.68;;;;;;;;;;5080890;22;20057;-68
2024/01/09 12:31:01;;;;;;;11.95;8.85;;;;;;;;;;5029305;22;20056;-61
2024/01/09 12:33:28;;;;;;;15.10;9.10;;;;;;;;;;5076466;28;20025;-60
2024/01/09 12:35:54;;;;;;;13.18;8.88;;;;;;;;;;5058170;28;20035;-60
2024/01/09 12:38:22;;;;;;;23.17;12.00;;;;;;;;;;5076253;28;20036;-60
2024/01/09 12:40:57;;;;;;;14.23;9.88;;;;;;;;;;5076051;28;20086;-61
2024/01/09 12:43:23;;;;;;;22.20;12.77;;;;;;;;;;5076358;28;20051;-60
2024/01/09 12:45:49;;;;;;;33.90;22.52;;;;;;;;;;5075968;28;20115;-61
2024/01/09 12:48:15;;;;;;;22.40;12.40;;;;;;;;;;5058247;28;20485;-60
2024/01/09 12:50:40;;;;;;;18.73;10.38;;;;;;;;;;5075901;28;20025;-60
2024/01/09 12:53:06;;;;;;;21.92;11.07;;;;;;;;;;5075721;28;20056;-60
2024/01/09 12:55:32;;;;;;;28.90;15.23;;;;;;;;;;5057759;28;20032;-61
2024/01/09 12:57:58;;;;;;;23.95;11.85;;;;;;;;;;5075681;28;20078;-60
2024/01/09 13:00:24;;;;;;;24.42;13.95;;;;;;;;;;5075608;28;20456;-62
2024/01/09 13:02:49;;;;;;;26.17;13.75;;;;;;;;;;5075870;28;20020;-61
2024/01/09 13:05:15;;;;;;;35.42;17.50;;;;;;;;;;5075882;28;20073;-63
2024/01/09 13:07:40;;;;;;;396.45;179.10;;;;;;;;;;5075824;28;20359;-62
2024/01/09 13:10:06;;;;;;;200.30;110.93;;;;;;;;;;5057602;28;20024;-62
2024/01/09 13:12:32;;;;;;;86.90;57.67;;;;;;;;;;5075579;28;20067;-61
2024/01/09 13:14:57;;;;;;;126.50;86.85;;;;;;;;;;5057309;28;20036;-61
2024/01/09 13:17:23;;;;;;;64.32;47.03;;;;;;;;;;5075554;28;20370;-70
2024/01/09 13:19:50;;;;;;;36.40;23.95;;;;;;;;;;5075293;28;20032;-69
2024/01/09 13:22:15;;;;;;;55.30;36.88;;;;;;;;;;5057682;28;20032;-69
2024/01/09 13:24:42;;;;;;;170.60;66.97;;;;;;;;;;5075397;28;20035;-61
2024/01/09 13:30:44;;;;;;;180.80;76.38;;;;;;;;;;4994450;28;20054;-60
2024/01/09 13:33:09;;;;;;;53.33;29.20;;;;;;;;;;4996038;28;20037;-60
2024/01/09 13:35:36;;;;;;;38.60;21.13;;;;;;;;;;4995725;28;20034;-61
2024/01/09 13:38:05;;;;;;;40.03;21.23;;;;;;;;;;4978427;28;20428;-60
2024/01/09 13:40:30;;;;;;;31.00;16.98;;;;;;;;;;4995895;28;20041;-60
2024/01/09 13:42:56;;;;;;;48.03;25.85;;;;;;;;;;4995446;28;20030;-60
2024/01/09 13:45:21;;;;;;;59.90;34.58;;;;;;;;;;4995497;28;20053;-61
2024/01/09 13:47:47;;;;;;;43.67;23.77;;;;;;;;;;4995745;28;20073;-60
2024/01/09 13:50:12;;;;;;;140.40;63.78;;;;;;;;;;4994384;28;20014;-59
2024/01/09 13:52:38;;;;;;;69.68;40.10;;;;;;;;;;4995131;28;20034;-59
2024/01/09 13:55:05;;;;;;;84.75;40.10;;;;;;;;;;4995515;28;20088;-59
2024/01/09 13:57:31;;;;;;;138.18;54.45;;;;;;;;;;4995195;28;20468;-60
2024/01/09 13:59:57;;;;;;;169.05;55.33;;;;;;;;;;4995327;28;20053;-60
2024/01/09 14:02:25;;;;;;;299.17;89.43;;;;;;;;;;4994430;28;20476;-60
2024/01/09 14:04:50;;;;;;;52.78;23.08;;;;;;;;;;4993935;28;20037;-59
2024/01/09 14:07:16;;;;;;;268.40;82.63;;;;;;;;;;4994113;28;20026;-60
2024/01/09 14:09:42;;;;;;;203.70;66.55;;;;;;;;;;4984704;28;20026;-60
2024/01/09 14:12:08;;;;;;;150.68;52.75;;;;;;;;;;4975592;28;20516;-60
2024/01/09 14:14:33;;;;;;;133.02;47.58;;;;;;;;;;4975797;28;20030;-60
2024/01/09 14:17:01;;;;;;;134.65;46.95;;;;;;;;;;4975499;28;20109;-60
2024/01/09 14:19:27;;;;;;;332.73;108.78;;;;;;;;;;4973772;28;20037;-60
2024/01/09 14:21:59;;;;;;;270.80;86.32;;;;;;;;;;4976001;28;20031;-60
2024/01/09 14:24:25;;;;;;;155.55;53.80;;;;;;;;;;4973312;28;20027;-60
2024/01/09 14:26:50;;;;;;;328.73;99.60;;;;;;;;;;4973661;28;20034;-60